Time;durP1;ratioP1;P1;durP2;ratioP2;P2;SDS_P1;SDS_P2;PMS_P1;PMS_P2;Temp;Humidity;BMP_temperature;BMP_pressure;BME280_temperature;BME280_humidity;BME280_pressure;Samples;Min_cycle;Max_cycle;Signal;HPM_P1;HPM_P2
2022/06/16 00:01:12;;;;;;;5.90;3.33;;;18.70;99.90;;;;;;5073883;28;20477;-70
2022/06/16 00:03:39;;;;;;;5.43;3.33;;;18.70;99.90;;;;;;5074134;28;20569;-70
2022/06/16 00:06:06;;;;;;;6.20;3.47;;;18.50;99.90;;;;;;5075759;28;20454;-70
2022/06/16 00:08:33;;;;;;;4.70;3.17;;;18.50;99.90;;;;;;5080077;28;20466;-70
2022/06/16 00:11:19;;;;;;;3.73;2.70;;;18.60;99.90;;;;;;5078122;28;20490;-70
2022/06/16 00:13:51;;;;;;;6.00;3.30;;;18.70;99.90;;;;;;5077414;28;20542;-71
2022/06/16 00:16:18;;;;;;;10.20;3.17;;;18.80;99.90;;;;;;5074171;28;20482;-71
2022/06/16 00:18:46;;;;;;;6.70;3.70;;;18.60;99.90;;;;;;5070908;28;21019;-70
2022/06/16 00:21:13;;;;;;;6.20;2.93;;;18.50;99.90;;;;;;5081024;28;20949;-70
2022/06/16 00:23:40;;;;;;;11.30;3.30;;;18.60;99.90;;;;;;5077702;28;20483;-69
2022/06/16 00:26:13;;;;;;;3.77;3.27;;;18.60;99.90;;;;;;5076800;28;20457;-70
2022/06/16 00:28:41;;;;;;;4.17;2.70;;;18.50;99.90;;;;;;5077437;28;20466;-70
2022/06/16 00:31:09;;;;;;;4.30;2.40;;;18.50;99.90;;;;;;5075610;28;21203;-74
2022/06/16 00:33:36;;;;;;;3.90;2.83;;;18.50;99.90;;;;;;5075932;28;20524;-71
2022/06/16 00:36:04;;;;;;;7.00;3.40;;;18.50;99.90;;;;;;5073235;28;20493;-70
2022/06/16 00:38:31;;;;;;;8.73;3.40;;;18.40;99.90;;;;;;5071146;28;20460;-69
2022/06/16 00:40:58;;;;;;;8.83;3.40;;;18.50;99.90;;;;;;5072124;28;20540;-70
2022/06/16 00:43:27;;;;;;;4.63;3.10;;;18.50;99.90;;;;;;5078813;28;20508;-69
2022/06/16 00:45:58;;;;;;;5.20;2.80;;;18.30;99.90;;;;;;5073831;28;20836;-70
2022/06/16 00:48:29;;;;;;;6.30;3.60;;;18.40;99.90;;;;;;5075653;28;20465;-70
2022/06/16 00:51:01;;;;;;;4.17;3.20;;;18.30;99.90;;;;;;5075797;28;20941;-70
2022/06/16 00:53:29;;;;;;;5.07;2.80;;;18.00;99.90;;;;;;5074451;28;20829;-69
2022/06/16 00:55:57;;;;;;;4.90;3.60;;;18.00;99.90;;;;;;5075836;28;20511;-70
2022/06/16 00:58:28;;;;;;;12.23;3.33;;;18.10;99.90;;;;;;5076514;28;21028;-69
2022/06/16 01:00:55;;;;;;;3.03;2.73;;;18.10;99.90;;;;;;5071868;28;20473;-70
2022/06/16 01:06:19;;;;;;;4.77;4.00;;;18.00;99.90;;;;;;5076557;28;20445;-70
2022/06/16 01:08:48;;;;;;;4.90;2.87;;;18.00;99.90;;;;;;5067000;28;20463;-70
2022/06/16 01:14:12;;;;;;;3.43;2.77;;;17.90;99.90;;;;;;5073393;28;20451;-70
2022/06/16 01:16:47;;;;;;;5.13;4.70;;;17.70;99.90;;;;;;5073573;28;20490;-70
2022/06/16 01:19:31;;;;;;;5.83;3.20;;;17.70;99.90;;;;;;5068731;28;20524;-70
2022/06/16 01:22:04;;;;;;;5.50;2.80;;;17.60;99.90;;;;;;5071804;28;20528;-70
2022/06/16 01:24:58;;;;;;;3.90;2.63;;;17.70;99.90;;;;;;5070248;28;20458;-70
2022/06/16 01:28:05;;;;;;;4.53;2.80;;;17.80;99.90;;;;;;5075922;28;20602;-70
2022/06/16 01:30:39;;;;;;;2.67;2.10;;;17.70;99.90;;;;;;4987300;28;20525;-69
2022/06/16 01:33:13;;;;;;;5.53;2.50;;;17.70;99.90;;;;;;5051019;28;20465;-70
2022/06/16 01:35:47;;;;;;;4.40;2.70;;;17.70;99.90;;;;;;5076790;28;20589;-73
2022/06/16 01:38:21;;;;;;;5.80;3.70;;;17.60;99.90;;;;;;5079108;28;20476;-68
2022/06/16 01:40:53;;;;;;;6.40;3.97;;;17.70;99.90;;;;;;5072860;28;20534;-70
2022/06/16 01:43:28;;;;;;;8.03;3.07;;;17.80;99.90;;;;;;5074926;28;20486;-70
2022/06/16 01:46:03;;;;;;;3.67;2.60;;;17.60;99.90;;;;;;5074318;28;20457;-71
2022/06/16 01:48:31;;;;;;;8.33;2.93;;;17.70;99.90;;;;;;5074120;28;21712;-70
2022/06/16 01:51:02;;;;;;;5.77;2.50;;;17.70;99.90;;;;;;5073796;28;20452;-69
2022/06/16 01:53:36;;;;;;;6.07;3.47;;;17.80;99.90;;;;;;5075824;28;20984;-70
2022/06/16 01:56:11;;;;;;;3.53;2.63;;;17.80;99.90;;;;;;5073676;28;20456;-69
2022/06/16 01:58:41;;;;;;;6.50;2.70;;;17.50;99.90;;;;;;5078943;28;20481;-70
2022/06/16 02:01:14;;;;;;;2.43;2.23;;;17.50;99.90;;;;;;5070235;28;23261;-72
2022/06/16 02:03:46;;;;;;;4.13;2.40;;;17.60;99.90;;;;;;5077757;28;20462;-69
2022/06/16 02:06:19;;;;;;;5.30;2.80;;;17.50;99.90;;;;;;5076177;28;20518;-70
2022/06/16 02:08:51;;;;;;;3.10;2.53;;;17.60;99.90;;;;;;5074549;28;20533;-70
2022/06/16 02:11:21;;;;;;;3.00;2.63;;;17.70;99.90;;;;;;5074019;28;20577;-70
2022/06/16 02:13:54;;;;;;;10.83;3.20;;;17.70;99.90;;;;;;5078302;28;20466;-70
2022/06/16 02:16:25;;;;;;;5.10;3.10;;;17.50;99.90;;;;;;5066290;28;20948;-70
2022/06/16 02:18:54;;;;;;;6.10;2.73;;;17.40;99.90;;;;;;5071964;28;20933;-70
2022/06/16 02:21:27;;;;;;;3.03;2.60;;;17.50;99.90;;;;;;5074900;28;20457;-71
2022/06/16 02:23:55;;;;;;;8.07;3.23;;;17.30;99.90;;;;;;5074487;28;20478;-69
2022/06/16 02:26:29;;;;;;;3.60;2.83;;;17.40;99.90;;;;;;5077463;28;20461;-69
2022/06/16 02:28:58;;;;;;;3.63;2.77;;;17.30;99.90;;;;;;5071723;28;20494;-70
2022/06/16 02:31:40;;;;;;;3.10;2.30;;;17.40;99.90;;;;;;5071470;28;20425;-70
2022/06/16 02:34:16;;;;;;;2.63;2.40;;;17.40;99.90;;;;;;5072923;28;20454;-69
2022/06/16 02:37:05;;;;;;;5.70;2.77;;;17.50;99.90;;;;;;5074099;28;21081;-70
2022/06/16 02:39:46;;;;;;;5.03;2.80;;;17.60;99.90;;;;;;5071793;28;20514;-69
2022/06/16 02:42:19;;;;;;;4.43;2.70;;;17.60;99.90;;;;;;5074701;28;27329;-70
2022/06/16 02:44:57;;;;;;;4.57;3.03;;;17.50;99.90;;;;;;5079490;28;20462;-70
2022/06/16 02:47:46;;;;;;;5.67;3.23;;;17.40;99.90;;;;;;5076765;28;20490;-72
2022/06/16 02:50:21;;;;;;;3.90;2.90;;;17.50;99.90;;;;;;5072197;28;20467;-70
2022/06/16 02:52:54;;;;;;;3.63;2.70;;;17.60;99.90;;;;;;5076220;28;20453;-69
2022/06/16 02:55:26;;;;;;;5.20;2.90;;;17.50;99.90;;;;;;5075972;28;20558;-70
2022/06/16 02:57:55;;;;;;;3.47;3.17;;;17.40;99.90;;;;;;5067355;28;20509;-70
2022/06/16 03:00:26;;;;;;;4.20;2.97;;;17.20;99.90;;;;;;5070196;28;20469;-70
2022/06/16 03:02:55;;;;;;;6.47;2.70;;;17.20;99.90;;;;;;5076244;28;20478;-70
2022/06/16 03:05:22;;;;;;;6.03;2.77;;;17.30;99.90;;;;;;5076861;28;20985;-69
2022/06/16 03:07:49;;;;;;;2.43;2.23;;;17.20;99.90;;;;;;5073443;28;20496;-70
2022/06/16 03:10:50;;;;;;;3.60;2.93;;;17.10;99.90;;;;;;5074542;28;20848;-70
2022/06/16 03:13:06;;;;;;;2.77;2.23;;;17.10;99.90;;;;;;5079997;28;20454;-69
2022/06/16 03:15:33;;;;;;;9.50;3.00;;;17.10;99.90;;;;;;5081638;28;20858;-70
2022/06/16 03:18:01;;;;;;;6.10;2.70;;;17.00;99.90;;;;;;5078149;28;20543;-70
2022/06/16 03:20:28;;;;;;;4.20;2.90;;;16.90;99.90;;;;;;5076167;28;20983;-71
2022/06/16 03:22:55;;;;;;;7.80;2.67;;;17.00;99.90;;;;;;5072280;28;20469;-70
2022/06/16 03:25:25;;;;;;;4.73;2.90;;;16.90;99.90;;;;;;5075808;28;20462;-69
2022/06/16 03:27:55;;;;;;;6.20;2.97;;;16.70;99.90;;;;;;5076023;28;20478;-70
2022/06/16 03:30:22;;;;;;;4.53;3.17;;;16.70;99.90;;;;;;5078391;28;20553;-70
2022/06/16 03:32:49;;;;;;;3.60;2.83;;;16.60;99.90;;;;;;5070687;28;20985;-70
2022/06/16 03:35:17;;;;;;;2.53;2.23;;;16.60;99.90;;;;;;5074321;28;20480;-70
2022/06/16 03:37:44;;;;;;;3.10;2.80;;;16.70;99.90;;;;;;5077883;28;20504;-70
2022/06/16 03:40:13;;;;;;;9.10;3.30;;;16.80;99.90;;;;;;5078526;28;20461;-70
2022/06/16 03:42:40;;;;;;;3.50;2.23;;;16.80;99.90;;;;;;5078397;28;20457;-70
2022/06/16 03:45:08;;;;;;;2.60;2.20;;;16.90;99.90;;;;;;5077064;28;20987;-71
2022/06/16 03:47:35;;;;;;;4.03;2.40;;;16.90;99.90;;;;;;5077314;28;20456;-70
2022/06/16 03:50:02;;;;;;;4.33;3.37;;;16.80;99.90;;;;;;5076387;28;20544;-69
2022/06/16 03:52:30;;;;;;;3.70;2.10;;;16.60;99.90;;;;;;5075145;28;20433;-70
2022/06/16 03:54:57;;;;;;;3.50;2.70;;;16.70;99.90;;;;;;5079495;28;20438;-70
2022/06/16 03:57:24;;;;;;;2.33;2.03;;;16.80;99.90;;;;;;5076248;28;20572;-69
2022/06/16 03:59:51;;;;;;;3.83;2.00;;;16.80;99.90;;;;;;5073797;28;20461;-71
2022/06/16 04:02:17;;;;;;;2.20;1.93;;;16.70;99.90;;;;;;5069265;28;20454;-70
2022/06/16 04:04:45;;;;;;;2.87;1.87;;;16.60;99.90;;;;;;5073508;28;20439;-70
2022/06/16 04:07:12;;;;;;;2.83;2.30;;;16.70;99.90;;;;;;5073226;28;20477;-70
2022/06/16 04:09:42;;;;;;;3.27;2.97;;;16.70;99.90;;;;;;5073490;28;21008;-71
2022/06/16 04:12:10;;;;;;;2.43;1.83;;;16.70;99.90;;;;;;5075987;28;20429;-71
2022/06/16 04:14:37;;;;;;;5.00;1.97;;;16.70;99.90;;;;;;5072873;28;20488;-70
2022/06/16 04:17:04;;;;;;;3.27;2.53;;;16.40;99.90;;;;;;5061593;28;20597;-70
2022/06/16 04:19:31;;;;;;;3.10;2.40;;;16.50;99.90;;;;;;5071458;28;20431;-71
2022/06/16 04:21:58;;;;;;;4.10;2.40;;;16.50;99.90;;;;;;5078004;28;20511;-70
2022/06/16 04:24:28;;;;;;;2.10;1.90;;;16.60;99.90;;;;;;5070315;28;20439;-70
2022/06/16 04:26:57;;;;;;;2.87;2.10;;;16.50;99.90;;;;;;5072698;28;21326;-70
2022/06/16 04:29:25;;;;;;;6.07;2.30;;;16.60;99.90;;;;;;5070232;28;20469;-70
2022/06/16 04:31:52;;;;;;;2.47;2.03;;;16.40;99.90;;;;;;5073233;28;20467;-70
2022/06/16 04:34:19;;;;;;;3.40;2.07;;;16.60;99.90;;;;;;5071797;28;20473;-69
2022/06/16 04:36:46;;;;;;;3.60;3.27;;;16.50;99.90;;;;;;5059950;28;20483;-71
2022/06/16 04:39:13;;;;;;;4.17;2.93;;;16.60;99.90;;;;;;5070227;28;20870;-69
2022/06/16 04:41:40;;;;;;;5.90;2.40;;;16.60;99.90;;;;;;5073601;28;20675;-69
2022/06/16 04:44:08;;;;;;;2.40;2.20;;;16.70;99.90;;;;;;5073230;28;20462;-69
2022/06/16 04:46:36;;;;;;;3.37;2.60;;;16.50;99.90;;;;;;5080457;28;20902;-70
2022/06/16 04:49:04;;;;;;;10.33;3.00;;;16.50;99.90;;;;;;5073070;28;20504;-71
2022/06/16 04:51:31;;;;;;;2.50;2.30;;;16.30;99.90;;;;;;5074683;28;20454;-70
2022/06/16 04:53:58;;;;;;;2.37;1.90;;;16.30;99.90;;;;;;5080186;28;20433;-70
2022/06/16 04:56:25;;;;;;;2.33;2.00;;;16.50;99.90;;;;;;5075935;28;21100;-70
2022/06/16 04:58:52;;;;;;;3.40;1.80;;;16.50;99.90;;;;;;5076890;28;20452;-71
2022/06/16 05:01:20;;;;;;;4.40;2.33;;;16.60;99.90;;;;;;5080830;28;20521;-70
2022/06/16 05:03:47;;;;;;;2.43;1.70;;;16.70;99.90;;;;;;5085742;28;20468;-70
2022/06/16 05:06:13;;;;;;;2.80;1.73;;;16.70;99.90;;;;;;5080083;28;20493;-71
2022/06/16 05:08:40;;;;;;;3.23;2.10;;;16.80;99.90;;;;;;5083516;28;20480;-70
2022/06/16 05:11:07;;;;;;;3.20;2.60;;;16.70;99.90;;;;;;5085707;28;20508;-70
2022/06/16 05:13:35;;;;;;;3.10;2.40;;;16.80;99.90;;;;;;5080658;28;20459;-70
2022/06/16 05:16:02;;;;;;;4.87;2.87;;;16.90;99.90;;;;;;5081588;28;20464;-71
2022/06/16 05:18:30;;;;;;;3.73;2.47;;;17.20;99.90;;;;;;5084461;28;20482;-69
2022/06/16 05:21:05;;;;;;;3.33;2.30;;;17.10;99.90;;;;;;5081903;28;20602;-69
2022/06/16 05:23:31;;;;;;;6.03;2.30;;;17.40;99.90;;;;;;5080105;28;20441;-69
2022/06/16 05:25:58;;;;;;;1.97;1.77;;;17.60;99.90;;;;;;5083265;28;20450;-69
2022/06/16 05:28:25;;;;;;;2.63;1.93;;;18.00;99.90;;;;;;5082359;28;20626;-69
2022/06/16 05:30:52;;;;;;;2.87;2.10;;;18.30;99.90;;;;;;5065319;28;20526;-69
2022/06/16 05:33:19;;;;;;;2.60;2.10;;;18.30;99.90;;;;;;5081524;28;21890;-69
2022/06/16 05:35:57;;;;;;;2.57;2.17;;;18.30;99.90;;;;;;5080382;28;20446;-69
2022/06/16 05:38:24;;;;;;;3.00;2.03;;;18.40;99.90;;;;;;5079851;28;20488;-69
2022/06/16 05:40:56;;;;;;;5.33;2.10;;;18.60;99.90;;;;;;5082812;28;20533;-70
2022/06/16 05:43:23;;;;;;;4.30;2.53;;;18.60;99.90;;;;;;5077024;28;20459;-69
2022/06/16 05:45:51;;;;;;;4.80;2.17;;;18.60;99.90;;;;;;5081147;28;20548;-69
2022/06/16 05:48:18;;;;;;;2.70;1.60;;;19.00;99.90;;;;;;5082410;28;20466;-70
2022/06/16 05:50:45;;;;;;;2.27;1.97;;;19.00;99.90;;;;;;5084326;28;20462;-69
2022/06/16 05:53:14;;;;;;;2.80;2.60;;;18.90;99.90;;;;;;5082231;28;20461;-69
2022/06/16 05:55:41;;;;;;;3.93;2.03;;;19.00;99.90;;;;;;5082967;28;20447;-70
2022/06/16 05:58:08;;;;;;;3.73;2.20;;;19.20;99.90;;;;;;5083777;28;20488;-69
2022/06/16 06:00:35;;;;;;;3.77;1.93;;;19.60;99.90;;;;;;5079178;28;20541;-70
2022/06/16 06:03:02;;;;;;;3.07;2.10;;;19.70;99.90;;;;;;5082390;28;21073;-70
2022/06/16 06:05:30;;;;;;;2.10;1.90;;;19.80;99.90;;;;;;5082945;28;20811;-70
2022/06/16 06:16:28;;;;;;;2.53;1.90;;;19.90;99.90;;;;;;5080520;28;20485;-70
2022/06/16 06:18:56;;;;;;;2.07;1.60;;;20.40;99.90;;;;;;5080852;28;20474;-70
2022/06/16 06:24:05;;;;;;;4.17;2.33;;;19.80;99.90;;;;;;5067654;28;20446;-70
2022/06/16 06:26:34;;;;;;;3.77;1.80;;;19.80;99.90;;;;;;5074296;28;20470;-70
2022/06/16 06:29:01;;;;;;;1.83;1.60;;;20.60;99.90;;;;;;5065753;28;20446;-72
2022/06/16 06:31:28;;;;;;;4.23;2.03;;;21.00;99.90;;;;;;5069406;28;20515;-70
2022/06/16 06:33:55;;;;;;;2.20;1.77;;;21.20;99.90;;;;;;5074342;28;20469;-69
2022/06/16 06:36:22;;;;;;;2.07;1.87;;;20.80;99.90;;;;;;5067736;28;20966;-70
2022/06/16 06:38:49;;;;;;;1.67;1.57;;;20.60;99.90;;;;;;5069304;28;20477;-70
2022/06/16 06:41:17;;;;;;;3.37;2.47;;;21.20;99.90;;;;;;5078070;28;20481;-70
2022/06/16 06:43:46;;;;;;;3.27;2.00;;;21.80;99.90;;;;;;5078491;28;20462;-70
2022/06/16 06:46:13;;;;;;;2.03;1.83;;;22.30;99.90;;;;;;5085240;28;20473;-69
2022/06/16 06:48:40;;;;;;;3.40;2.27;;;22.60;99.90;;;;;;5086308;28;20805;-70
2022/06/16 06:51:07;;;;;;;2.23;1.90;;;22.70;99.90;;;;;;5080684;28;20899;-69
2022/06/16 06:53:34;;;;;;;3.90;2.27;;;22.60;99.90;;;;;;5083136;28;20461;-69
2022/06/16 06:56:01;;;;;;;5.80;2.10;;;22.50;99.90;;;;;;5084516;28;20545;-69
2022/06/16 06:58:31;;;;;;;2.40;1.90;;;22.60;99.90;;;;;;5088793;28;20565;-69
2022/06/16 07:01:01;;;;;;;6.07;1.77;;;22.60;99.90;;;;;;5071813;28;20603;-69
2022/06/16 07:03:29;;;;;;;1.53;1.43;;;22.30;99.90;;;;;;5079776;28;20454;-69
2022/06/16 07:06:01;;;;;;;1.93;1.40;;;22.60;99.90;;;;;;5077160;28;21276;-67
2022/06/16 07:08:29;;;;;;;2.80;2.00;;;23.20;98.50;;;;;;5072093;28;20916;-68
2022/06/16 07:10:56;;;;;;;4.03;2.37;;;23.70;97.80;;;;;;5080368;28;20460;-68
2022/06/16 07:13:23;;;;;;;4.60;1.70;;;23.70;96.40;;;;;;5085122;28;23160;-68
2022/06/16 07:15:50;;;;;;;4.17;1.90;;;23.60;95.50;;;;;;5084625;28;20515;-68
2022/06/16 07:18:18;;;;;;;2.33;2.10;;;23.20;97.00;;;;;;5084330;28;20483;-68
2022/06/16 07:20:47;;;;;;;3.00;1.50;;;23.30;97.10;;;;;;5082603;28;21106;-67
2022/06/16 07:23:15;;;;;;;1.70;1.50;;;23.70;94.30;;;;;;5081547;28;21256;-70
2022/06/16 07:25:42;;;;;;;1.63;1.30;;;23.70;93.00;;;;;;5080450;28;20828;-69
2022/06/16 07:28:09;;;;;;;2.93;1.43;;;24.30;91.90;;;;;;5081892;28;20480;-66
2022/06/16 07:30:36;;;;;;;3.53;2.00;;;25.10;90.60;;;;;;5077103;28;20911;-68
2022/06/16 07:33:03;;;;;;;2.57;2.37;;;24.50;88.20;;;;;;5078556;28;20450;-68
2022/06/16 07:35:31;;;;;;;2.50;1.37;;;24.10;91.10;;;;;;5088233;28;20833;-68
2022/06/16 07:37:58;;;;;;;2.57;1.83;;;24.50;91.00;;;;;;5083883;28;21031;-70
2022/06/16 07:40:25;;;;;;;2.23;1.60;;;25.10;87.80;;;;;;5083586;28;20450;-70
2022/06/16 07:42:56;;;;;;;3.43;2.07;;;24.50;87.00;;;;;;5086596;28;20442;-69
2022/06/16 07:45:23;;;;;;;3.07;2.00;;;24.50;88.00;;;;;;5088117;28;20528;-67
2022/06/16 07:47:50;;;;;;;3.33;1.73;;;25.30;84.60;;;;;;5089657;28;20561;-69
2022/06/16 07:50:18;;;;;;;3.40;1.43;;;25.90;85.20;;;;;;5086918;28;20455;-68
2022/06/16 07:52:46;;;;;;;1.83;1.43;;;25.80;82.10;;;;;;5085382;28;20446;-68
2022/06/16 07:55:14;;;;;;;3.10;1.50;;;25.80;81.10;;;;;;5078322;28;20587;-68
2022/06/16 07:57:42;;;;;;;2.73;1.80;;;25.50;78.80;;;;;;5074727;28;20492;-69
2022/06/16 08:00:11;;;;;;;2.43;1.40;;;25.40;80.40;;;;;;5074293;28;20564;-69
2022/06/16 08:02:38;;;;;;;1.83;1.63;;;25.90;77.50;;;;;;5083727;28;20507;-68
2022/06/16 08:05:06;;;;;;;10.43;4.83;;;26.50;75.70;;;;;;5082484;28;21383;-69
2022/06/16 08:07:34;;;;;;;3.83;1.80;;;26.90;72.50;;;;;;5083779;28;20601;-69
2022/06/16 08:10:02;;;;;;;3.20;1.40;;;26.80;70.80;;;;;;5084118;28;20967;-68
2022/06/16 08:12:29;;;;;;;2.80;1.50;;;27.20;71.20;;;;;;5078460;28;20470;-68
2022/06/16 08:14:56;;;;;;;3.30;1.20;;;27.30;69.70;;;;;;5077687;28;20450;-70
2022/06/16 08:17:25;;;;;;;1.73;1.20;;;27.10;67.00;;;;;;5080735;28;20841;-70
2022/06/16 08:19:53;;;;;;;1.70;1.27;;;26.60;68.80;;;;;;5071366;28;20454;-71
2022/06/16 08:22:23;;;;;;;4.00;1.33;;;26.40;70.70;;;;;;5078912;28;20977;-71
2022/06/16 08:24:50;;;;;;;2.60;1.33;;;26.50;70.20;;;;;;5072132;28;20632;-71
2022/06/16 08:27:21;;;;;;;1.93;1.30;;;26.60;69.10;;;;;;5074136;28;20480;-69
2022/06/16 08:29:48;;;;;;;1.70;1.60;;;26.20;66.80;;;;;;5074125;28;20466;-69
2022/06/16 08:32:18;;;;;;;7.80;3.93;;;26.20;67.30;;;;;;5078097;28;20459;-69
2022/06/16 08:34:48;;;;;;;1.50;1.20;;;26.30;67.10;;;;;;5070547;28;20468;-70
2022/06/16 08:37:15;;;;;;;2.30;1.30;;;26.90;65.90;;;;;;5073294;28;20493;-70
2022/06/16 08:39:42;;;;;;;3.10;1.23;;;26.60;64.30;;;;;;5080480;28;20472;-70
2022/06/16 08:42:11;;;;;;;1.60;1.00;;;27.20;67.00;;;;;;5077894;28;20459;-70
2022/06/16 08:44:44;;;;;;;1.30;1.00;;;27.70;64.30;;;;;;5075485;28;20454;-71
2022/06/16 08:47:18;;;;;;;2.53;1.20;;;27.40;63.50;;;;;;5079163;28;20540;-70
2022/06/16 08:49:56;;;;;;;3.77;1.37;;;27.30;65.00;;;;;;5072841;28;20461;-70
2022/06/16 08:52:33;;;;;;;1.87;1.43;;;27.00;65.50;;;;;;5081897;28;20458;-70
2022/06/16 08:55:07;;;;;;;3.03;1.63;;;27.10;61.20;;;;;;5083955;28;20525;-70
2022/06/16 08:57:47;;;;;;;1.63;1.20;;;27.20;62.60;;;;;;5076424;28;21113;-70
2022/06/16 09:00:19;;;;;;;1.70;0.93;;;28.00;60.70;;;;;;5070802;28;20556;-70
2022/06/16 09:02:53;;;;;;;3.10;1.40;;;28.20;59.60;;;;;;5073404;28;20497;-69
2022/06/16 09:05:37;;;;;;;2.23;1.40;;;27.90;60.40;;;;;;5067851;28;20454;-70
2022/06/16 09:08:14;;;;;;;1.47;1.23;;;28.70;58.90;;;;;;5068630;28;20477;-70
2022/06/16 09:10:48;;;;;;;1.80;1.70;;;28.20;61.10;;;;;;5069523;28;20464;-70
2022/06/16 09:13:40;;;;;;;1.40;1.17;;;28.60;58.50;;;;;;5078027;28;20455;-69
2022/06/16 09:16:22;;;;;;;2.10;1.33;;;28.90;59.30;;;;;;5071694;28;20485;-69
2022/06/16 09:19:40;;;;;;;3.30;1.20;;;29.50;56.80;;;;;;5060855;28;20489;-69
2022/06/16 09:22:23;;;;;;;1.30;1.00;;;29.70;57.80;;;;;;4994255;28;20925;-69
2022/06/16 09:25:23;;;;;;;4.93;1.53;;;29.10;55.40;;;;;;5059674;28;21051;-70
2022/06/16 09:27:56;;;;;;;2.10;1.33;;;29.20;56.90;;;;;;5061854;28;20492;-70
2022/06/16 09:30:28;;;;;;;1.70;1.00;;;29.60;56.60;;;;;;5068499;28;21050;-69
2022/06/16 09:33:02;;;;;;;3.70;1.30;;;30.00;56.50;;;;;;5065900;28;20465;-69
2022/06/16 09:35:35;;;;;;;3.00;1.37;;;29.80;56.50;;;;;;5069772;28;20459;-70
2022/06/16 09:38:08;;;;;;;2.43;1.23;;;30.80;55.90;;;;;;5074776;28;20480;-70
2022/06/16 09:40:40;;;;;;;1.57;1.10;;;30.80;54.50;;;;;;5075493;28;20485;-72
2022/06/16 09:43:14;;;;;;;1.77;1.20;;;31.20;55.00;;;;;;5064390;28;21436;-71
2022/06/16 09:45:45;;;;;;;1.40;1.17;;;31.30;53.70;;;;;;5062669;28;20450;-71
2022/06/16 09:48:18;;;;;;;1.93;1.10;;;31.70;52.80;;;;;;5063817;28;20475;-70
2022/06/16 09:50:50;;;;;;;1.60;1.10;;;31.00;51.40;;;;;;5059119;28;20463;-69
2022/06/16 09:53:25;;;;;;;1.33;1.03;;;30.80;51.60;;;;;;5072686;28;20466;-70
2022/06/16 09:55:57;;;;;;;1.93;1.63;;;30.80;52.10;;;;;;5073285;28;20810;-69
2022/06/16 09:58:30;;;;;;;4.37;1.57;;;30.60;51.80;;;;;;5071645;28;20509;-69
2022/06/16 10:01:01;;;;;;;1.50;0.90;;;30.50;51.50;;;;;;5067558;28;20486;-69
2022/06/16 10:03:35;;;;;;;1.20;1.00;;;29.60;53.20;;;;;;5070700;28;20476;-69
2022/06/16 10:06:11;;;;;;;1.87;1.33;;;30.10;53.00;;;;;;5071593;28;20988;-72
2022/06/16 10:08:46;;;;;;;2.70;1.33;;;30.70;52.60;;;;;;5079606;28;20580;-71
2022/06/16 10:11:26;;;;;;;1.60;1.10;;;31.20;50.90;;;;;;5080486;28;20458;-70
2022/06/16 10:14:01;;;;;;;2.20;1.40;;;30.80;52.20;;;;;;5074736;28;20459;-70
2022/06/16 10:16:43;;;;;;;3.83;2.03;;;30.80;49.90;;;;;;5075510;28;20500;-70
2022/06/16 10:19:11;;;;;;;1.43;1.07;;;30.50;50.20;;;;;;5081331;28;20536;-70
2022/06/16 10:21:38;;;;;;;2.30;1.30;;;30.70;50.20;;;;;;5079207;28;20454;-69
2022/06/16 10:24:07;;;;;;;3.37;1.20;;;30.80;50.10;;;;;;5074444;28;20557;-70
2022/06/16 10:26:35;;;;;;;1.90;1.20;;;30.90;52.00;;;;;;5072176;28;20504;-71
2022/06/16 10:29:18;;;;;;;2.00;1.30;;;31.00;49.70;;;;;;5068825;28;20545;-71
2022/06/16 10:31:48;;;;;;;5.40;1.40;;;30.40;51.00;;;;;;5076838;28;20522;-71
2022/06/16 10:34:27;;;;;;;1.63;1.30;;;31.20;50.70;;;;;;5062430;28;20498;-71
2022/06/16 10:36:58;;;;;;;3.23;1.70;;;32.00;50.10;;;;;;5061323;28;20477;-70
2022/06/16 10:39:31;;;;;;;1.50;1.03;;;31.40;50.50;;;;;;5055243;28;20584;-70
2022/06/16 10:42:05;;;;;;;2.30;1.70;;;31.70;49.80;;;;;;5072532;28;20455;-70
2022/06/16 10:44:34;;;;;;;1.83;1.20;;;31.70;49.90;;;;;;5073896;28;20961;-70
2022/06/16 10:47:06;;;;;;;3.20;1.70;;;31.80;51.00;;;;;;5080103;28;20482;-70
2022/06/16 10:49:38;;;;;;;1.67;1.30;;;32.20;52.50;;;;;;5074665;28;20813;-70
2022/06/16 10:52:11;;;;;;;2.97;1.50;;;32.80;49.90;;;;;;5075385;28;20469;-71
2022/06/16 10:54:45;;;;;;;1.80;1.60;;;32.90;50.00;;;;;;5078364;28;20506;-71
2022/06/16 10:57:19;;;;;;;1.63;1.13;;;33.20;48.40;;;;;;5074779;28;20496;-71
2022/06/16 10:59:50;;;;;;;2.43;1.10;;;32.70;48.20;;;;;;5075374;28;20521;-71
2022/06/16 11:02:25;;;;;;;2.00;1.43;;;32.40;50.30;;;;;;5076261;28;20463;-70
2022/06/16 11:05:00;;;;;;;3.33;1.47;;;32.50;49.30;;;;;;5077838;28;20549;-72
2022/06/16 11:07:30;;;;;;;3.10;1.77;;;31.80;49.70;;;;;;5076212;28;20481;-70
2022/06/16 11:10:05;;;;;;;1.93;1.70;;;31.30;49.90;;;;;;5074770;28;21024;-70
2022/06/16 11:12:32;;;;;;;1.40;1.30;;;31.40;49.50;;;;;;5077790;28;20966;-70
2022/06/16 11:15:04;;;;;;;1.97;1.23;;;32.10;49.50;;;;;;5082028;28;20479;-70
2022/06/16 11:17:37;;;;;;;1.43;1.33;;;32.40;50.00;;;;;;5070924;28;21006;-69
2022/06/16 11:20:16;;;;;;;4.73;2.47;;;32.80;48.90;;;;;;5080463;28;20595;-70
2022/06/16 11:22:46;;;;;;;4.70;1.60;;;32.70;49.10;;;;;;5074311;28;20464;-70
2022/06/16 11:25:23;;;;;;;1.70;1.40;;;32.70;49.90;;;;;;5080505;28;20522;-70
2022/06/16 11:27:55;;;;;;;1.90;1.30;;;32.50;49.10;;;;;;5084562;28;20483;-70
2022/06/16 11:30:36;;;;;;;2.27;1.50;;;32.60;49.20;;;;;;5079263;28;20444;-70
2022/06/16 11:33:04;;;;;;;1.70;1.23;;;31.70;50.70;;;;;;5076430;28;20462;-69
2022/06/16 11:35:42;;;;;;;2.90;1.63;;;32.20;50.30;;;;;;5080588;28;20595;-70
2022/06/16 11:38:17;;;;;;;1.57;1.30;;;32.30;50.00;;;;;;5080774;28;21017;-70
2022/06/16 11:40:50;;;;;;;2.30;1.50;;;32.20;50.10;;;;;;5074978;28;20590;-70
2022/06/16 11:43:38;;;;;;;6.37;1.80;;;33.10;50.00;;;;;;5080408;28;20463;-69
2022/06/16 11:46:11;;;;;;;4.23;2.30;;;33.40;48.60;;;;;;5081606;28;20467;-69
2022/06/16 11:48:50;;;;;;;2.07;1.20;;;33.30;49.50;;;;;;5078659;28;20474;-69
2022/06/16 11:51:26;;;;;;;2.20;2.00;;;32.80;48.00;;;;;;5080810;28;20460;-69
2022/06/16 11:54:06;;;;;;;2.27;2.07;;;32.50;49.80;;;;;;5081784;28;20508;-69
2022/06/16 11:56:42;;;;;;;2.43;1.30;;;32.50;50.60;;;;;;5075706;28;20482;-69
2022/06/16 11:59:39;;;;;;;1.20;1.00;;;32.70;49.40;;;;;;5072739;28;20486;-70
2022/06/16 12:02:25;;;;;;;2.47;1.57;;;32.60;47.80;;;;;;5046261;28;20461;-70
2022/06/16 12:05:03;;;;;;;1.77;1.40;;;31.60;49.40;;;;;;5082357;28;20955;-70
2022/06/16 12:07:51;;;;;;;2.40;1.80;;;32.30;49.60;;;;;;5069359;28;20475;-70
2022/06/16 12:10:26;;;;;;;1.53;1.43;;;33.10;49.50;;;;;;5079422;28;20495;-70
2022/06/16 12:13:00;;;;;;;1.53;1.37;;;33.10;48.80;;;;;;5075874;28;20851;-70
2022/06/16 12:15:35;;;;;;;4.57;1.40;;;32.20;49.30;;;;;;5069599;28;20468;-68
2022/06/16 12:18:15;;;;;;;2.97;1.67;;;32.30;48.30;;;;;;5074072;28;20485;-70
2022/06/16 12:20:54;;;;;;;5.40;1.43;;;32.60;49.10;;;;;;5081199;28;20474;-70
2022/06/16 12:23:30;;;;;;;2.80;1.80;;;33.10;48.20;;;;;;5062988;28;20462;-70
2022/06/16 12:26:01;;;;;;;3.70;2.90;;;32.90;48.40;;;;;;5082356;28;20576;-70
2022/06/16 12:28:37;;;;;;;2.50;1.30;;;33.20;47.90;;;;;;5081348;28;20549;-69
2022/06/16 12:31:09;;;;;;;3.87;1.83;;;33.20;48.50;;;;;;5072292;28;20459;-69
2022/06/16 12:33:43;;;;;;;3.37;2.00;;;33.20;48.30;;;;;;5077300;28;21853;-73
2022/06/16 12:36:14;;;;;;;1.90;1.70;;;33.30;48.10;;;;;;5072309;28;20462;-70
2022/06/16 12:38:47;;;;;;;4.20;2.00;;;33.40;48.30;;;;;;5074755;28;20535;-71
2022/06/16 12:41:19;;;;;;;1.60;1.30;;;32.80;48.40;;;;;;5074591;28;20835;-71
2022/06/16 12:43:51;;;;;;;2.67;2.03;;;33.70;49.40;;;;;;5077541;28;20992;-71
2022/06/16 12:46:23;;;;;;;3.30;1.90;;;33.40;48.30;;;;;;5071868;28;20545;-71
2022/06/16 12:48:55;;;;;;;6.77;1.83;;;33.10;48.10;;;;;;5073526;28;20547;-71
2022/06/16 12:51:30;;;;;;;2.37;1.83;;;33.10;49.30;;;;;;5076054;28;20465;-70
2022/06/16 12:54:06;;;;;;;2.20;1.83;;;33.60;48.20;;;;;;5079790;28;20544;-71
2022/06/16 12:56:40;;;;;;;3.00;1.47;;;33.70;48.60;;;;;;5065610;28;20473;-70
2022/06/16 12:59:13;;;;;;;2.03;1.83;;;32.50;49.00;;;;;;5074673;28;20919;-70
2022/06/16 13:01:40;;;;;;;5.37;2.07;;;32.30;50.20;;;;;;5074705;28;20454;-71
2022/06/16 13:04:13;;;;;;;2.10;1.60;;;33.10;48.50;;;;;;5073647;28;20462;-70
2022/06/16 13:06:43;;;;;;;3.40;2.00;;;33.70;48.80;;;;;;5076529;28;20492;-70
2022/06/16 13:09:13;;;;;;;1.70;1.60;;;34.40;47.80;;;;;;5082384;28;20442;-69
2022/06/16 13:11:46;;;;;;;3.20;1.70;;;34.00;47.60;;;;;;5083614;28;20659;-70
2022/06/16 13:14:19;;;;;;;5.70;2.00;;;33.30;48.00;;;;;;5074895;28;21397;-72
2022/06/16 13:16:49;;;;;;;2.67;1.67;;;33.30;48.30;;;;;;5076997;28;20480;-71
2022/06/16 13:19:20;;;;;;;1.80;1.60;;;33.40;48.90;;;;;;5078853;28;20542;-70
2022/06/16 13:21:52;;;;;;;2.40;1.70;;;33.10;48.50;;;;;;5080322;28;20465;-70
2022/06/16 13:24:23;;;;;;;2.13;1.83;;;33.20;48.20;;;;;;5083387;28;21779;-71